createdAt,value
2018-09-03T00:02:23.648Z,23.60
2018-09-03T00:04:50.945Z,22.57
2018-09-03T00:07:18.061Z,21.80
2018-09-03T00:09:45.212Z,21.40
2018-09-03T00:12:12.416Z,20.70
2018-09-03T00:14:39.937Z,22.70
2018-09-03T00:17:07.776Z,21.57
2018-09-03T00:19:35.068Z,21.77
2018-09-03T00:22:02.272Z,21.40
2018-09-03T00:24:29.564Z,23.40
2018-09-03T00:26:56.729Z,20.50
2018-09-03T00:29:23.951Z,22.30
2018-09-03T00:31:56.950Z,20.17
2018-09-03T00:34:29.677Z,21.50
2018-09-03T00:37:02.483Z,20.67
2018-09-03T00:39:35.337Z,20.97
2018-09-03T00:42:08.142Z,19.60
2018-09-03T00:44:40.897Z,20.40
2018-09-03T00:47:09.612Z,21.10
2018-09-03T00:49:36.717Z,20.53
2018-09-03T00:52:03.963Z,20.10
2018-09-03T00:54:31.124Z,18.70
2018-09-03T00:56:58.276Z,18.23
2018-09-03T00:59:25.644Z,20.00
2018-09-03T01:01:52.819Z,18.70
2018-09-03T01:04:20.144Z,17.53
2018-09-03T01:06:47.324Z,19.40
2018-09-03T01:09:14.444Z,20.33
2018-09-03T01:11:41.620Z,19.50
2018-09-03T01:14:08.731Z,20.50
2018-09-03T01:16:35.932Z,19.67
2018-09-03T01:19:03.121Z,20.50
2018-09-03T01:21:30.276Z,20.63
2018-09-03T01:23:57.568Z,21.97
2018-09-03T01:26:24.736Z,19.57
2018-09-03T01:28:52.185Z,22.43
2018-09-03T01:31:20.269Z,23.23
2018-09-03T01:33:49.588Z,21.50
2018-09-03T01:36:17.411Z,21.53
2018-09-03T01:38:44.508Z,22.67
2018-09-03T01:41:11.704Z,23.90
2018-09-03T01:43:38.901Z,22.93
2018-09-03T01:46:06.041Z,22.90
2018-09-03T01:48:33.341Z,22.70
2018-09-03T01:51:00.552Z,22.67
2018-09-03T01:53:27.681Z,22.13
2018-09-03T01:55:54.930Z,23.43
2018-09-03T01:58:22.085Z,22.47
2018-09-03T02:00:49.196Z,22.73
2018-09-03T02:03:17.176Z,20.40
2018-09-03T02:05:44.322Z,20.17
2018-09-03T02:08:11.436Z,24.80
2018-09-03T02:10:38.620Z,20.93
2018-09-03T02:13:05.753Z,22.27
2018-09-03T02:15:32.876Z,21.40
2018-09-03T02:18:00.034Z,23.07
2018-09-03T02:20:27.180Z,22.67
2018-09-03T02:22:54.440Z,22.20
2018-09-03T02:25:21.627Z,21.70
2018-09-03T02:27:48.777Z,20.67
2018-09-03T02:30:16.012Z,24.00
2018-09-03T02:32:43.174Z,19.80
2018-09-03T02:35:10.345Z,20.73
2018-09-03T02:37:37.611Z,22.57
2018-09-03T02:40:05.096Z,21.20
2018-09-03T02:42:32.240Z,20.77
2018-09-03T02:44:59.365Z,18.77
2018-09-03T02:47:26.480Z,19.27
2018-09-03T02:49:53.784Z,18.10
2018-09-03T02:52:21.086Z,17.90
2018-09-03T02:54:48.217Z,17.83
2018-09-03T02:57:15.514Z,19.90
2018-09-03T02:59:42.732Z,17.30
2018-09-03T03:02:09.925Z,19.10
2018-09-03T03:04:37.268Z,19.13
2018-09-03T03:07:04.643Z,19.40
2018-09-03T03:09:31.765Z,19.17
2018-09-03T03:11:58.866Z,20.10
2018-09-03T03:14:25.957Z,16.83
2018-09-03T03:16:53.228Z,17.97
2018-09-03T03:19:21.028Z,19.60
2018-09-03T03:21:48.152Z,18.47
2018-09-03T03:24:15.380Z,18.97
2018-09-03T03:26:42.620Z,19.30
2018-09-03T03:29:09.797Z,20.50
2018-09-03T03:31:37.065Z,20.40
2018-09-03T03:34:04.848Z,21.50
2018-09-03T03:36:31.965Z,25.50
2018-09-03T03:38:59.137Z,24.23
2018-09-03T03:41:26.292Z,28.37
2018-09-03T03:43:53.547Z,27.43
2018-09-03T03:46:20.816Z,27.10
2018-09-03T03:48:48.094Z,28.10
2018-09-03T03:51:15.512Z,28.93
2018-09-03T03:53:42.639Z,29.70
2018-09-03T03:56:09.740Z,27.47
2018-09-03T03:58:36.992Z,25.77
2018-09-03T04:01:04.162Z,28.83
2018-09-03T04:03:31.253Z,26.20
2018-09-03T04:05:58.508Z,27.90
2018-09-03T04:08:25.636Z,29.13
2018-09-03T04:10:52.792Z,29.17
2018-09-03T04:13:20.085Z,29.07
2018-09-03T04:15:47.208Z,27.27
2018-09-03T04:18:14.379Z,28.77
2018-09-03T04:20:41.537Z,28.13
2018-09-03T04:23:08.743Z,27.73
2018-09-03T04:25:35.852Z,27.90
2018-09-03T04:28:03.062Z,27.80
2018-09-03T04:30:30.224Z,27.47
2018-09-03T04:32:57.464Z,27.57
2018-09-03T04:35:24.729Z,28.13
2018-09-03T04:37:52.164Z,25.97
2018-09-03T04:40:19.428Z,28.37
2018-09-03T04:42:46.616Z,25.87
2018-09-03T04:45:13.752Z,26.50
2018-09-03T04:47:40.977Z,27.30
2018-09-03T04:50:08.105Z,27.60
2018-09-03T04:52:35.292Z,25.23
2018-09-03T04:55:02.788Z,27.13
2018-09-03T04:57:29.869Z,26.73
2018-09-03T04:59:57.107Z,28.30
2018-09-03T05:02:24.255Z,29.97
2018-09-03T05:04:51.393Z,30.70
2018-09-03T05:07:18.685Z,31.43
2018-09-03T05:09:46.000Z,28.07
2018-09-03T05:12:13.093Z,30.17
2018-09-03T05:14:40.328Z,29.47
2018-09-03T05:17:07.498Z,29.07
2018-09-03T05:19:34.716Z,27.27
2018-09-03T05:22:01.940Z,27.33
2018-09-03T05:24:29.152Z,28.50
2018-09-03T05:26:56.435Z,30.17
2018-09-03T05:29:24.160Z,27.33
2018-09-03T05:31:51.380Z,27.20
2018-09-03T05:34:18.603Z,27.40
2018-09-03T05:36:45.925Z,27.07
2018-09-03T05:39:13.244Z,28.17
2018-09-03T05:41:40.602Z,28.20
2018-09-03T05:44:08.385Z,26.73
2018-09-03T05:46:39.099Z,27.40
2018-09-03T05:49:06.192Z,25.73
2018-09-03T05:51:33.450Z,24.80
2018-09-03T05:54:00.581Z,23.67
2018-09-03T05:56:27.846Z,25.30
2018-09-03T05:58:55.086Z,27.17
2018-09-03T06:01:22.236Z,27.07
2018-09-03T06:03:49.362Z,25.83
2018-09-03T06:06:16.585Z,26.27
2018-09-03T06:08:43.755Z,26.90
2018-09-03T06:11:10.999Z,26.70
2018-09-03T06:13:38.100Z,25.00
2018-09-03T06:16:05.436Z,25.57
2018-09-03T06:18:32.633Z,26.00
2018-09-03T06:20:59.880Z,27.03
2018-09-03T06:23:26.955Z,27.50
2018-09-03T06:25:54.172Z,27.40
2018-09-03T06:28:21.280Z,26.00
2018-09-03T06:30:48.483Z,27.70
2018-09-03T06:33:15.924Z,29.50
2018-09-03T06:35:43.056Z,27.97
2018-09-03T06:38:10.183Z,31.30
2018-09-03T06:40:37.337Z,28.27
2018-09-03T06:43:04.843Z,27.20
2018-09-03T06:45:32.015Z,25.70
2018-09-03T06:47:59.221Z,27.00
2018-09-03T06:50:26.328Z,28.10
2018-09-03T06:52:53.444Z,28.63
2018-09-03T06:55:20.621Z,29.10
2018-09-03T06:57:47.916Z,27.03
2018-09-03T07:00:15.204Z,26.80
2018-09-03T07:02:42.416Z,25.53
2018-09-03T07:05:09.612Z,24.43
2018-09-03T07:07:36.745Z,23.70
2018-09-03T07:10:05.124Z,25.00
2018-09-03T07:12:32.270Z,24.60
2018-09-03T07:14:59.428Z,26.50
2018-09-03T07:17:26.581Z,24.33
2018-09-03T07:19:53.720Z,23.17
2018-09-03T07:22:20.956Z,24.17
2018-09-03T07:24:48.135Z,25.43
2018-09-03T07:27:15.464Z,22.10
2018-09-03T07:29:43.313Z,24.00
2018-09-03T07:32:10.487Z,20.93
2018-09-03T07:34:37.708Z,21.70
2018-09-03T07:37:04.872Z,21.10
2018-09-03T07:39:32.009Z,20.17
2018-09-03T07:41:59.176Z,20.57
2018-09-03T07:44:26.312Z,21.10
2018-09-03T07:46:53.433Z,19.13
2018-09-03T07:49:20.572Z,20.73
2018-09-03T07:51:47.710Z,20.27
2018-09-03T07:54:14.992Z,21.17
2018-09-03T07:56:42.184Z,20.87
2018-09-03T07:59:09.332Z,20.90
2018-09-03T08:01:36.470Z,21.60
2018-09-03T08:04:03.569Z,20.20
2018-09-03T08:06:30.701Z,19.43
2018-09-03T08:08:57.986Z,21.60
2018-09-03T08:11:25.159Z,19.37
2018-09-03T08:13:52.276Z,18.23
2018-09-03T08:16:19.583Z,18.97
2018-09-03T08:18:46.835Z,20.07
2018-09-03T08:21:14.077Z,20.47
2018-09-03T08:23:41.256Z,21.00
2018-09-03T08:26:08.381Z,18.77
2018-09-03T08:28:35.605Z,19.57
2018-09-03T08:31:02.697Z,21.43
2018-09-03T08:33:29.828Z,19.23
2018-09-03T08:35:57.540Z,20.53
2018-09-03T08:38:24.701Z,19.80
2018-09-03T08:40:51.852Z,20.50
2018-09-03T08:43:19.148Z,21.80
2018-09-03T08:45:46.273Z,21.07
2018-09-03T08:48:13.472Z,23.80
2018-09-03T08:50:40.617Z,20.90
2018-09-03T08:53:07.800Z,20.80
2018-09-03T08:55:35.041Z,20.50
2018-09-03T08:58:02.141Z,21.23
2018-09-03T09:00:29.268Z,20.70
2018-09-03T09:02:56.596Z,20.63
2018-09-03T09:05:23.740Z,22.60
2018-09-03T09:07:50.894Z,24.17
2018-09-03T09:10:18.150Z,23.00
2018-09-03T09:12:45.306Z,22.47
2018-09-03T09:15:12.468Z,21.40
2018-09-03T09:17:39.719Z,21.77
2018-09-03T09:20:06.793Z,22.37
2018-09-03T09:22:34.029Z,21.43
2018-09-03T09:25:01.163Z,23.77
2018-09-03T09:27:28.280Z,24.60
2018-09-03T09:29:55.527Z,23.97
2018-09-03T09:32:22.660Z,23.80
2018-09-03T09:34:49.804Z,21.53
2018-09-03T09:37:16.996Z,20.13
2018-09-03T09:39:44.547Z,18.60
2018-09-03T09:42:11.784Z,16.50
2018-09-03T09:44:38.891Z,16.30
2018-09-03T09:47:05.984Z,16.53
2018-09-03T09:49:33.244Z,19.10
2018-09-03T09:52:00.408Z,18.70
2018-09-03T09:54:27.569Z,17.67
2018-09-03T09:56:54.856Z,20.50
2018-09-03T09:59:22.026Z,20.67
2018-09-03T10:01:49.167Z,21.20
2018-09-03T10:04:16.404Z,20.37
2018-09-03T10:06:43.468Z,20.13
2018-09-03T10:09:10.601Z,19.13
2018-09-03T10:11:37.906Z,18.43
2018-09-03T10:14:05.483Z,18.00
2018-09-03T10:16:32.859Z,14.97
2018-09-03T10:18:59.949Z,16.70
2018-09-03T10:21:27.065Z,14.97
2018-09-03T10:24:00.965Z,14.50
2018-09-03T10:26:28.166Z,13.13
2018-09-03T10:28:55.440Z,14.40
2018-09-03T10:31:22.667Z,14.10
2018-09-03T10:33:50.052Z,14.50
2018-09-03T10:36:17.400Z,14.47
2018-09-03T10:38:44.552Z,16.00
2018-09-03T10:41:11.781Z,14.73
2018-09-03T10:43:38.967Z,13.70
2018-09-03T10:46:06.108Z,14.23
2018-09-03T10:48:33.285Z,13.50
2018-09-03T10:51:00.444Z,15.77
2018-09-03T10:53:27.666Z,15.50
2018-09-03T10:55:54.852Z,17.17
2018-09-03T10:58:22.158Z,15.30
2018-09-03T11:00:49.312Z,14.90
2018-09-03T11:03:17.148Z,13.40
2018-09-03T11:05:44.269Z,16.17
2018-09-03T11:08:11.405Z,15.03
2018-09-03T11:10:38.689Z,15.63
2018-09-03T11:13:06.020Z,15.27
2018-09-03T11:15:33.134Z,16.27
2018-09-03T11:18:00.294Z,17.00
2018-09-03T11:20:29.136Z,16.33
2018-09-03T11:22:56.872Z,15.07
2018-09-03T11:25:25.410Z,15.87
2018-09-03T11:27:53.465Z,17.70
2018-09-03T11:30:21.071Z,17.60
2018-09-03T11:32:53.808Z,18.40
2018-09-03T11:35:27.807Z,18.13
2018-09-03T11:37:54.940Z,17.30
2018-09-03T11:40:22.989Z,18.40
2018-09-03T11:42:50.141Z,18.10
2018-09-03T11:45:19.087Z,17.33
2018-09-03T11:47:46.664Z,17.03
2018-09-03T11:50:14.400Z,17.63
2018-09-03T11:52:41.535Z,17.43
2018-09-03T11:55:08.720Z,18.83
2018-09-03T11:57:36.003Z,19.07
2018-09-03T12:00:04.333Z,19.20
2018-09-03T12:02:31.516Z,19.87
2018-09-03T12:04:58.680Z,17.60
2018-09-03T12:07:25.865Z,18.77
2018-09-03T12:09:53.360Z,17.63
2018-09-03T12:12:20.653Z,19.60
2018-09-03T12:14:50.478Z,18.83
2018-09-03T12:17:17.767Z,19.60
2018-09-03T12:19:44.996Z,18.33
2018-09-03T12:22:12.144Z,19.33
2018-09-03T12:24:39.300Z,20.60
2018-09-03T12:27:06.570Z,20.87
2018-09-03T12:29:34.149Z,23.53
2018-09-03T12:32:01.278Z,21.97
2018-09-03T12:34:28.497Z,22.63
2018-09-03T12:36:55.618Z,22.37
2018-09-03T12:39:22.768Z,20.60
2018-09-03T12:41:50.039Z,22.53
2018-09-03T12:44:17.208Z,19.90
2018-09-03T12:46:44.353Z,20.67
2018-09-03T12:49:11.513Z,22.53
2018-09-03T12:51:38.657Z,19.00
2018-09-03T12:54:05.901Z,15.73
2018-09-03T12:56:33.075Z,17.27
2018-09-03T12:59:00.169Z,15.90
2018-09-03T13:01:27.485Z,15.87
2018-09-03T13:03:54.639Z,16.70
2018-09-03T13:06:21.857Z,14.27
2018-09-03T13:08:49.164Z,12.77
2018-09-03T13:11:16.336Z,14.93
2018-09-03T13:13:43.510Z,15.50
2018-09-03T13:16:10.649Z,15.73
2018-09-03T13:18:37.811Z,12.10
2018-09-03T13:21:05.351Z,13.53
2018-09-03T13:23:32.509Z,14.70
2018-09-03T13:25:59.646Z,13.37
2018-09-03T13:28:26.904Z,13.30
2018-09-03T13:30:54.092Z,13.90
2018-09-03T13:33:21.240Z,13.47
2018-09-03T13:35:48.552Z,13.70
2018-09-03T13:38:15.689Z,12.33
2018-09-03T13:40:42.885Z,17.00
2018-09-03T13:43:10.112Z,13.60
2018-09-03T13:45:37.279Z,12.47
2018-09-03T13:48:04.491Z,13.00
2018-09-03T13:50:31.699Z,12.90
2018-09-03T13:52:58.838Z,11.37
2018-09-03T13:55:26.019Z,11.63
2018-09-03T13:57:53.208Z,11.00
2018-09-03T14:00:20.528Z,11.60
2018-09-03T14:02:47.805Z,11.53
2018-09-03T14:05:14.962Z,10.73
2018-09-03T14:07:42.085Z,11.77
2018-09-03T14:10:09.430Z,12.00
2018-09-03T14:12:36.512Z,11.83
2018-09-03T14:15:04.096Z,11.80
2018-09-03T14:17:31.525Z,13.10
2018-09-03T14:19:58.863Z,13.10
2018-09-03T14:22:26.056Z,11.77
2018-09-03T14:25:00.057Z,12.30
2018-09-03T14:27:27.238Z,11.87
2018-09-03T14:29:54.477Z,11.40
2018-09-03T14:32:21.614Z,10.80
2018-09-03T14:34:48.861Z,11.83
2018-09-03T14:37:16.159Z,13.57
2018-09-03T14:39:43.324Z,12.53
2018-09-03T14:42:10.469Z,15.60
2018-09-03T14:47:11.652Z,14.47
2018-09-03T14:52:13.288Z,14.73
2018-09-03T14:54:40.420Z,15.63
2018-09-03T14:57:07.629Z,18.63
2018-09-03T14:59:34.707Z,16.63
2018-09-03T15:02:01.915Z,17.70
2018-09-03T15:04:29.133Z,19.50
2018-09-03T15:06:56.311Z,17.73
2018-09-03T15:09:23.465Z,17.33
2018-09-03T15:11:50.592Z,15.77
2018-09-03T15:14:18.712Z,15.67
2018-09-03T15:16:45.934Z,16.53
2018-09-03T15:19:13.106Z,16.63
2018-09-03T15:21:40.256Z,16.87
2018-09-03T15:24:07.580Z,16.47
2018-09-03T15:26:34.761Z,16.93
2018-09-03T15:29:01.948Z,16.60
2018-09-03T15:31:29.175Z,17.30
2018-09-03T15:33:56.273Z,18.33
2018-09-03T15:36:23.778Z,17.40
2018-09-03T15:38:51.077Z,17.63
2018-09-03T15:41:18.221Z,16.13
2018-09-03T15:43:45.450Z,13.90
2018-09-03T15:46:12.613Z,15.67
2018-09-03T15:48:39.854Z,13.07
2018-09-03T15:51:07.058Z,10.03
2018-09-03T15:53:34.291Z,10.97
2018-09-03T15:56:02.345Z,10.37
2018-09-03T15:58:30.036Z,11.50
2018-09-03T16:00:57.193Z,11.37
2018-09-03T16:03:24.357Z,12.50
2018-09-03T16:05:51.596Z,12.53
2018-09-03T16:08:18.788Z,10.40
2018-09-03T16:10:45.967Z,10.50
2018-09-03T16:13:13.173Z,10.77
2018-09-03T16:15:40.337Z,11.37
2018-09-03T16:18:07.644Z,12.07
2018-09-03T16:20:34.920Z,12.20
2018-09-03T16:23:02.097Z,11.87
2018-09-03T16:25:29.256Z,13.47
2018-09-03T16:27:56.450Z,11.67
2018-09-03T16:30:23.606Z,13.80
2018-09-03T16:32:50.788Z,13.03
2018-09-03T16:35:17.989Z,14.10
2018-09-03T16:37:45.180Z,14.23
2018-09-03T16:40:13.581Z,13.20
2018-09-03T16:42:40.793Z,14.60
2018-09-03T16:45:08.033Z,13.80
2018-09-03T16:47:35.219Z,14.60
2018-09-03T16:50:02.643Z,18.03
2018-09-03T16:52:29.817Z,17.30
2018-09-03T16:54:57.058Z,13.60
2018-09-03T16:57:24.181Z,14.10
2018-09-03T16:59:51.368Z,13.87
2018-09-03T17:02:18.523Z,11.47
2018-09-03T17:04:45.816Z,13.17
2018-09-03T17:07:13.086Z,12.90
2018-09-03T17:09:40.326Z,12.93
2018-09-03T17:12:07.529Z,12.97
2018-09-03T17:14:34.787Z,11.30
2018-09-03T17:17:01.961Z,12.20
2018-09-03T17:19:29.115Z,13.40
2018-09-03T17:21:56.281Z,13.37
2018-09-03T17:24:23.420Z,12.43
2018-09-03T17:26:50.588Z,17.20
2018-09-03T17:29:17.968Z,17.60
2018-09-03T17:31:45.160Z,21.53
2018-09-03T17:34:12.420Z,18.10
2018-09-03T17:36:39.635Z,17.10
2018-09-03T17:39:07.301Z,15.70
2018-09-03T17:41:34.571Z,14.97
2018-09-03T17:44:01.676Z,13.20
2018-09-03T17:46:28.824Z,15.60
2018-09-03T17:48:56.081Z,14.17
2018-09-03T17:51:23.207Z,12.57
2018-09-03T17:53:50.336Z,15.00
2018-09-03T17:56:17.688Z,16.87
2018-09-03T17:58:44.945Z,19.30
2018-09-03T18:01:12.165Z,17.27
2018-09-03T18:03:39.523Z,15.97
2018-09-03T18:06:06.653Z,16.20
2018-09-03T18:08:33.892Z,16.53
2018-09-03T18:11:01.016Z,14.90
2018-09-03T18:13:28.163Z,15.70
2018-09-03T18:15:55.427Z,16.47
2018-09-03T18:18:22.542Z,14.50
2018-09-03T18:20:49.696Z,16.70
2018-09-03T18:23:16.917Z,17.23
2018-09-03T18:25:44.112Z,15.20
2018-09-03T18:28:11.293Z,15.97
2018-09-03T18:30:38.544Z,15.70
2018-09-03T18:33:05.683Z,16.83
2018-09-03T18:35:32.892Z,16.23
2018-09-03T18:38:00.110Z,15.17
2018-09-03T18:40:27.288Z,15.33
2018-09-03T18:42:54.492Z,15.83
2018-09-03T18:45:21.739Z,17.47
2018-09-03T18:47:48.894Z,15.30
2018-09-03T18:50:17.204Z,16.70
2018-09-03T18:52:44.356Z,15.27
2018-09-03T18:55:11.532Z,16.13
2018-09-03T18:57:38.836Z,15.80
2018-09-03T19:00:06.916Z,18.73
2018-09-03T19:02:34.025Z,16.60
2018-09-03T19:05:01.349Z,17.53
2018-09-03T19:07:28.502Z,17.13
2018-09-03T19:09:55.721Z,15.90
2018-09-03T19:12:24.019Z,15.33
2018-09-03T19:14:51.332Z,17.60
2018-09-03T19:17:18.531Z,17.90
2018-09-03T19:19:45.941Z,18.67
2018-09-03T19:22:13.149Z,17.80
2018-09-03T19:24:40.292Z,18.57
2018-09-03T19:27:07.876Z,17.13
2018-09-03T19:29:36.219Z,16.00
2018-09-03T19:32:04.322Z,18.13
2018-09-03T19:34:31.516Z,18.37
2018-09-03T19:36:58.716Z,19.50
2018-09-03T19:39:25.866Z,17.13
2018-09-03T19:41:53.200Z,19.07
2018-09-03T19:44:20.438Z,19.40
2018-09-03T19:46:47.613Z,18.70
2018-09-03T19:49:14.821Z,19.87
2018-09-03T19:51:42.061Z,20.13
2018-09-03T19:56:43.293Z,18.33
2018-09-03T19:59:10.446Z,18.43
2018-09-03T20:01:37.724Z,19.53
2018-09-03T20:04:05.020Z,18.83
2018-09-03T20:06:32.169Z,19.83
2018-09-03T20:08:59.847Z,19.90
2018-09-03T20:11:29.157Z,20.50
2018-09-03T20:13:56.317Z,21.90
2018-09-03T20:16:23.509Z,21.90
2018-09-03T20:18:50.857Z,20.37
2018-09-03T20:21:18.092Z,20.30
2018-09-03T20:23:45.276Z,20.40
2018-09-03T20:26:12.433Z,20.77
2018-09-03T20:28:39.590Z,21.03
2018-09-03T20:31:06.738Z,18.83
2018-09-03T20:33:33.928Z,18.83
2018-09-03T20:36:01.084Z,18.40
2018-09-03T20:38:28.297Z,19.03
2018-09-03T20:40:55.468Z,19.90
2018-09-03T20:43:22.652Z,21.10
2018-09-03T20:45:50.043Z,20.30
2018-09-03T20:48:17.325Z,19.70
2018-09-03T20:50:44.447Z,19.33
2018-09-03T20:53:11.744Z,18.90
2018-09-03T20:55:38.998Z,18.40
2018-09-03T20:58:06.200Z,18.47
2018-09-03T21:00:33.427Z,18.00
2018-09-03T21:03:00.573Z,19.77
2018-09-03T21:05:27.879Z,19.87
2018-09-03T21:07:55.010Z,20.10
2018-09-03T21:10:22.183Z,17.87
2018-09-03T21:12:49.577Z,18.27
2018-09-03T21:15:16.760Z,18.53
2018-09-03T21:17:43.927Z,18.03
2018-09-03T21:20:11.089Z,17.60
2018-09-03T21:22:38.273Z,19.40
2018-09-03T21:25:05.616Z,18.97
2018-09-03T21:27:32.920Z,19.73
2018-09-03T21:30:00.055Z,19.30
2018-09-03T21:32:27.264Z,19.10
2018-09-03T21:34:54.598Z,17.40
2018-09-03T21:37:21.681Z,18.70
2018-09-03T21:39:48.986Z,18.00
2018-09-03T21:42:16.145Z,18.77
2018-09-03T21:44:43.361Z,21.07
2018-09-03T21:47:10.596Z,19.63
2018-09-03T21:49:37.756Z,17.67
2018-09-03T21:52:05.061Z,17.50
2018-09-03T21:54:32.280Z,17.43
2018-09-03T21:56:59.401Z,17.23
2018-09-03T21:59:26.604Z,17.40
2018-09-03T22:01:53.709Z,17.50
2018-09-03T22:04:20.849Z,18.60
2018-09-03T22:06:48.108Z,18.60
2018-09-03T22:09:15.293Z,20.13
2018-09-03T22:11:42.432Z,21.00
2018-09-03T22:14:09.659Z,19.87
2018-09-03T22:16:36.765Z,19.90
2018-09-03T22:19:04.035Z,23.67
2018-09-03T22:21:31.268Z,22.60
2018-09-03T22:23:58.379Z,22.53
2018-09-03T22:26:25.548Z,22.27
2018-09-03T22:28:52.712Z,21.80
2018-09-03T22:31:19.928Z,23.33
2018-09-03T22:33:47.204Z,20.93
2018-09-03T22:36:14.338Z,24.20
2018-09-03T22:38:41.466Z,22.30
2018-09-03T22:41:08.565Z,22.80
2018-09-03T22:43:35.680Z,22.90
2018-09-03T22:46:02.874Z,22.30
2018-09-03T22:48:30.096Z,23.20
2018-09-03T22:50:57.240Z,22.27
2018-09-03T22:53:24.432Z,23.27
2018-09-03T22:55:51.562Z,23.23
2018-09-03T22:58:18.797Z,24.63
2018-09-03T23:00:46.754Z,25.90
2018-09-03T23:03:13.972Z,24.27
2018-09-03T23:05:41.144Z,24.57
2018-09-03T23:08:08.296Z,26.43
2018-09-03T23:10:35.385Z,26.40
2018-09-03T23:13:02.625Z,25.43
2018-09-03T23:15:29.822Z,24.83
2018-09-03T23:17:56.961Z,25.20
2018-09-03T23:20:24.191Z,25.90
2018-09-03T23:22:51.384Z,25.10
2018-09-03T23:25:18.489Z,27.90
2018-09-03T23:27:45.773Z,28.37
2018-09-03T23:30:12.886Z,26.80
2018-09-03T23:32:39.968Z,26.90
2018-09-03T23:35:07.228Z,25.60
2018-09-03T23:37:34.340Z,26.23
2018-09-03T23:40:01.576Z,30.00
2018-09-03T23:42:28.775Z,29.20
2018-09-03T23:44:55.897Z,30.20
2018-09-03T23:47:23.217Z,31.50
2018-09-03T23:49:50.347Z,33.03
2018-09-03T23:52:17.429Z,31.30
2018-09-03T23:54:44.732Z,31.67
2018-09-03T23:57:11.837Z,33.60
2018-09-03T23:59:39.260Z,30.20
